createdAt,value
2022-11-05T00:00:50.620Z,77.82
2022-11-05T00:01:50.554Z,77.96
2022-11-05T00:02:50.640Z,78.20
2022-11-05T00:03:50.623Z,77.97
2022-11-05T00:04:50.601Z,77.92
2022-11-05T00:05:50.483Z,77.68
2022-11-05T00:06:50.565Z,77.59
2022-11-05T00:07:50.482Z,77.55
2022-11-05T00:08:50.524Z,77.19
2022-11-05T00:09:50.426Z,76.89
2022-11-05T00:10:50.553Z,76.99
2022-11-05T00:11:50.431Z,76.72
2022-11-05T00:12:50.400Z,76.43
2022-11-05T00:13:50.453Z,76.29
2022-11-05T00:14:50.353Z,76.38
2022-11-05T00:15:50.451Z,76.34
2022-11-05T00:16:50.372Z,76.71
2022-11-05T00:17:50.287Z,76.59
2022-11-05T00:18:50.338Z,76.66
2022-11-05T00:19:50.260Z,76.66
2022-11-05T00:20:50.300Z,76.88
2022-11-05T00:21:50.379Z,76.79
2022-11-05T00:22:50.440Z,76.72
2022-11-05T00:23:50.329Z,76.64
2022-11-05T00:24:50.509Z,76.44
2022-11-05T00:25:50.294Z,76.37
2022-11-05T00:26:52.413Z,76.36
2022-11-05T00:27:50.211Z,76.47
2022-11-05T00:28:50.290Z,76.61
2022-11-05T00:29:50.219Z,76.65
2022-11-05T00:30:50.248Z,76.50
2022-11-05T00:31:50.219Z,76.68
2022-11-05T00:32:50.255Z,76.59
2022-11-05T00:33:50.090Z,76.63
2022-11-05T00:34:50.192Z,76.82
2022-11-05T00:35:50.153Z,76.68
2022-11-05T00:36:50.180Z,76.76
2022-11-05T00:37:50.705Z,76.78
2022-11-05T00:38:50.140Z,76.72
2022-11-05T00:39:50.152Z,76.62
2022-11-05T00:40:51.096Z,76.71
2022-11-05T00:41:49.994Z,76.68
2022-11-05T00:42:50.120Z,76.97
2022-11-05T00:43:50.060Z,76.98
2022-11-05T00:44:50.115Z,76.86
2022-11-05T00:45:49.925Z,77.28
2022-11-05T00:46:50.222Z,76.72
2022-11-05T00:47:49.899Z,76.86
2022-11-05T00:48:49.980Z,76.83
2022-11-05T00:49:49.868Z,76.80
2022-11-05T00:50:49.899Z,76.56
2022-11-05T00:51:49.840Z,76.27
2022-11-05T00:53:12.239Z,76.44
2022-11-05T00:53:49.822Z,76.43
2022-11-05T00:54:51.004Z,76.11
2022-11-05T00:55:49.841Z,76.29
2022-11-05T00:56:49.885Z,76.99
2022-11-05T00:57:49.878Z,77.82
2022-11-05T00:58:49.892Z,77.70
2022-11-05T00:59:49.873Z,76.67
2022-11-05T01:00:49.906Z,76.21
2022-11-05T01:01:50.028Z,76.26
2022-11-05T01:02:49.965Z,75.84
2022-11-05T01:03:51.859Z,76.04
2022-11-05T01:04:49.714Z,75.93
2022-11-05T01:05:49.751Z,75.58
2022-11-05T01:06:50.047Z,75.69
2022-11-05T01:07:49.868Z,75.97
2022-11-05T01:08:49.756Z,75.67
2022-11-05T01:09:49.700Z,75.40
2022-11-05T01:10:49.649Z,75.50
2022-11-05T01:11:49.609Z,75.22
2022-11-05T01:12:49.845Z,75.64
2022-11-05T01:13:49.703Z,75.47
2022-11-05T01:14:49.777Z,74.92
2022-11-05T01:15:49.622Z,75.12
2022-11-05T01:16:49.600Z,75.11
2022-11-05T01:17:49.561Z,75.15
2022-11-05T01:18:49.677Z,74.74
2022-11-05T01:19:49.545Z,75.26
2022-11-05T01:20:49.509Z,74.59
2022-11-05T01:21:49.451Z,75.03
2022-11-05T01:22:50.540Z,75.32
2022-11-05T01:23:49.428Z,74.63
2022-11-05T01:24:49.490Z,74.42
2022-11-05T01:25:49.407Z,74.31
2022-11-05T01:26:49.449Z,74.45
2022-11-05T01:27:49.378Z,74.53
2022-11-05T01:28:49.503Z,74.39
2022-11-05T01:29:49.350Z,74.27
2022-11-05T01:30:49.433Z,74.24
2022-11-05T01:31:49.328Z,74.17
2022-11-05T01:32:49.387Z,74.66
2022-11-05T01:33:49.289Z,74.57
2022-11-05T01:34:49.299Z,74.88
2022-11-05T01:35:49.268Z,75.30
2022-11-05T01:36:49.371Z,75.71
2022-11-05T01:37:49.238Z,75.68
2022-11-05T01:38:50.415Z,75.96
2022-11-05T01:39:49.362Z,76.13
2022-11-05T01:40:49.415Z,76.11
2022-11-05T01:41:49.331Z,75.97
2022-11-05T01:42:49.309Z,76.13
2022-11-05T01:43:49.164Z,76.41
2022-11-05T01:44:49.168Z,75.72
2022-11-05T01:45:49.135Z,75.99
2022-11-05T01:46:49.352Z,76.37
2022-11-05T01:47:49.253Z,76.70
2022-11-05T01:48:49.387Z,76.52
2022-11-05T01:49:49.079Z,76.31
2022-11-05T01:50:49.068Z,76.00
2022-11-05T01:51:49.049Z,76.34
2022-11-05T01:52:49.127Z,76.48
2022-11-05T01:53:49.028Z,76.25
2022-11-05T01:54:49.093Z,76.51
2022-11-05T01:55:48.997Z,75.90
2022-11-05T01:56:49.048Z,76.48
2022-11-05T01:57:48.977Z,76.16
2022-11-05T01:58:49.066Z,76.32
2022-11-05T01:59:48.947Z,75.89
2022-11-05T02:00:49.039Z,75.79
2022-11-05T02:01:49.015Z,75.39
2022-11-05T02:02:49.118Z,75.52
2022-11-05T02:03:48.897Z,75.63
2022-11-05T02:04:48.910Z,75.37
2022-11-05T02:05:48.870Z,75.48
2022-11-05T02:06:48.978Z,75.56
2022-11-05T02:07:48.838Z,75.46
2022-11-05T02:08:48.939Z,75.29
2022-11-05T02:09:48.807Z,75.36
2022-11-05T02:10:48.848Z,75.36
2022-11-05T02:11:48.787Z,75.29
2022-11-05T02:12:48.917Z,75.63
2022-11-05T02:13:48.766Z,75.63
2022-11-05T02:14:48.770Z,75.85
2022-11-05T02:15:48.739Z,76.07
2022-11-05T02:16:48.787Z,76.04
2022-11-05T02:17:48.720Z,76.06
2022-11-05T02:18:49.785Z,76.08
2022-11-05T02:19:48.679Z,76.23
2022-11-05T02:20:52.144Z,76.40
2022-11-05T02:21:48.647Z,76.57
2022-11-05T02:22:48.730Z,76.60
2022-11-05T02:23:48.627Z,76.67
2022-11-05T02:24:50.747Z,76.95
2022-11-05T02:25:48.596Z,77.08
2022-11-05T02:26:48.652Z,76.87
2022-11-05T02:27:48.577Z,76.57
2022-11-05T02:28:48.667Z,76.87
2022-11-05T02:29:48.545Z,77.68
2022-11-05T02:30:48.638Z,76.94
2022-11-05T02:31:48.517Z,77.12
2022-11-05T02:32:48.597Z,77.01
2022-11-05T02:33:48.487Z,76.93
2022-11-05T02:34:48.507Z,76.85
2022-11-05T02:35:48.469Z,76.98
2022-11-05T02:36:48.578Z,76.99
2022-11-05T02:37:48.441Z,77.20
2022-11-05T02:38:48.638Z,77.21
2022-11-05T02:39:48.410Z,77.16
2022-11-05T02:40:48.447Z,77.29
2022-11-05T02:41:48.393Z,77.31
2022-11-05T02:42:48.528Z,77.12
2022-11-05T02:43:48.361Z,77.34
2022-11-05T02:44:48.382Z,77.19
2022-11-05T02:45:48.344Z,77.49
2022-11-05T02:46:48.390Z,77.41
2022-11-05T02:47:48.308Z,77.45
2022-11-05T02:48:48.364Z,77.39
2022-11-05T02:49:48.286Z,77.55
2022-11-05T02:50:48.318Z,77.24
2022-11-05T02:51:48.248Z,77.01
2022-11-05T02:52:48.338Z,77.05
2022-11-05T02:53:48.226Z,77.39
2022-11-05T02:54:48.298Z,77.69
2022-11-05T02:55:48.207Z,77.30
2022-11-05T02:56:48.263Z,77.02
2022-11-05T02:57:48.177Z,76.95
2022-11-05T02:58:48.276Z,76.93
2022-11-05T02:59:48.147Z,77.04
2022-11-05T03:00:48.242Z,76.98
2022-11-05T03:01:48.309Z,76.90
2022-11-05T03:02:48.349Z,77.47
2022-11-05T03:03:48.243Z,78.12
2022-11-05T03:04:48.131Z,77.93
2022-11-05T03:05:48.067Z,78.15
2022-11-05T03:06:48.178Z,77.77
2022-11-05T03:07:48.045Z,77.60
2022-11-05T03:08:48.135Z,77.82
2022-11-05T03:09:48.016Z,78.24
2022-11-05T03:10:49.078Z,78.04
2022-11-05T03:11:47.987Z,78.34
2022-11-05T03:12:48.017Z,78.53
2022-11-05T03:13:47.967Z,78.56
2022-11-05T03:14:47.976Z,78.03
2022-11-05T03:15:47.946Z,78.21
2022-11-05T03:16:47.991Z,77.92
2022-11-05T03:17:47.915Z,77.87
2022-11-05T03:18:47.956Z,77.68
2022-11-05T03:19:47.890Z,77.78
2022-11-05T03:20:47.923Z,77.81
2022-11-05T03:21:47.871Z,77.81
2022-11-05T03:22:47.936Z,77.80
2022-11-05T03:23:47.835Z,77.86
2022-11-05T03:24:47.905Z,77.97
2022-11-05T03:25:47.806Z,78.37
2022-11-05T03:26:47.862Z,78.55
2022-11-05T03:27:47.788Z,78.61
2022-11-05T03:28:47.884Z,79.02
2022-11-05T03:29:47.755Z,79.10
2022-11-05T03:30:47.850Z,78.59
2022-11-05T03:31:47.735Z,78.78
2022-11-05T03:32:47.805Z,78.96
2022-11-05T03:33:47.712Z,78.87
2022-11-05T03:34:47.714Z,78.80
2022-11-05T03:35:47.675Z,78.73
2022-11-05T03:36:47.787Z,79.26
2022-11-05T03:37:47.654Z,79.09
2022-11-05T03:38:47.745Z,78.83
2022-11-05T03:39:47.634Z,78.62
2022-11-05T03:40:47.654Z,78.79
2022-11-05T03:41:47.605Z,79.03
2022-11-05T03:42:48.059Z,78.99
2022-11-05T03:43:47.576Z,78.49
2022-11-05T03:44:47.582Z,78.69
2022-11-05T03:45:47.558Z,78.51
2022-11-05T03:46:47.591Z,78.75
2022-11-05T03:47:47.527Z,78.68
2022-11-05T03:48:47.635Z,79.09
2022-11-05T03:49:47.494Z,78.79
2022-11-05T03:50:47.524Z,78.80
2022-11-05T03:51:47.466Z,79.10
2022-11-05T03:52:47.543Z,78.46
2022-11-05T03:53:47.445Z,78.85
2022-11-05T03:54:47.504Z,79.26
2022-11-05T03:55:47.414Z,79.43
2022-11-05T03:56:48.484Z,78.86
2022-11-05T03:57:47.414Z,78.72
2022-11-05T03:58:47.476Z,78.98
2022-11-05T03:59:47.360Z,79.26
2022-11-05T04:00:47.444Z,79.19
2022-11-05T04:01:47.443Z,79.30
2022-11-05T04:02:47.493Z,78.87
2022-11-05T04:03:47.306Z,79.20
2022-11-05T04:04:47.323Z,79.04
2022-11-05T04:05:47.291Z,79.27
2022-11-05T04:06:47.385Z,79.42
2022-11-05T04:07:47.270Z,79.56
2022-11-05T04:08:47.343Z,79.16
2022-11-05T04:09:47.246Z,78.66
2022-11-05T04:10:47.260Z,78.81
2022-11-05T04:11:47.208Z,78.82
2022-11-05T04:12:47.334Z,78.73
2022-11-05T04:13:47.184Z,78.45
2022-11-05T04:14:47.183Z,78.36
2022-11-05T04:15:47.154Z,78.64
2022-11-05T04:16:47.202Z,78.42
2022-11-05T04:17:47.181Z,78.51
2022-11-05T04:18:47.164Z,78.54
2022-11-05T04:19:47.106Z,78.60
2022-11-05T04:20:47.124Z,78.84
2022-11-05T04:21:47.073Z,79.11
2022-11-05T04:22:47.171Z,78.98
2022-11-05T04:23:47.051Z,79.23
2022-11-05T04:24:47.104Z,79.52
2022-11-05T04:25:47.022Z,79.21
2022-11-05T04:26:47.070Z,79.42
2022-11-05T04:27:47.009Z,80.00
2022-11-05T04:28:47.082Z,79.44
2022-11-05T04:29:46.988Z,79.81
2022-11-05T04:30:47.053Z,79.28
2022-11-05T04:31:46.955Z,79.23
2022-11-05T04:32:47.011Z,79.64
2022-11-05T04:33:46.922Z,79.52
2022-11-05T04:34:47.025Z,79.69
2022-11-05T04:35:46.902Z,79.55
2022-11-05T04:36:46.992Z,79.43
2022-11-05T04:37:46.871Z,79.71
2022-11-05T04:38:46.955Z,79.52
2022-11-05T04:39:46.857Z,79.57
2022-11-05T04:40:47.891Z,79.53
2022-11-05T04:41:46.823Z,79.86
2022-11-05T04:42:46.935Z,80.12
2022-11-05T04:43:46.799Z,79.64
2022-11-05T04:44:46.892Z,79.86
2022-11-05T04:45:46.765Z,80.02
2022-11-05T04:46:46.804Z,80.20
2022-11-05T04:47:46.742Z,80.43
2022-11-05T04:48:46.765Z,80.33
2022-11-05T04:49:46.714Z,80.14
2022-11-05T04:50:46.732Z,80.21
2022-11-05T04:51:46.692Z,80.34
2022-11-05T04:52:46.741Z,80.43
2022-11-05T04:53:46.722Z,80.63
2022-11-05T04:54:46.712Z,80.76
2022-11-05T04:55:46.634Z,80.91
2022-11-05T04:56:46.673Z,81.25
2022-11-05T04:57:46.613Z,81.01
2022-11-05T04:58:47.710Z,81.04
2022-11-05T04:59:46.595Z,81.03
2022-11-05T05:00:46.840Z,81.51
2022-11-05T05:01:46.588Z,81.01
2022-11-05T05:02:46.623Z,80.86
2022-11-05T05:03:46.542Z,80.94
2022-11-05T05:04:46.631Z,80.73
2022-11-05T05:05:46.502Z,80.68
2022-11-05T05:06:46.593Z,80.50
2022-11-05T05:07:46.474Z,80.45
2022-11-05T05:08:46.561Z,80.40
2022-11-05T05:09:46.461Z,80.29
2022-11-05T05:10:46.470Z,80.28
2022-11-05T05:11:46.431Z,80.49
2022-11-05T05:12:46.533Z,80.44
2022-11-05T05:13:46.401Z,81.04
2022-11-05T05:14:46.493Z,80.71
2022-11-05T05:15:46.380Z,80.52
2022-11-05T05:16:46.406Z,80.29
2022-11-05T05:17:46.351Z,80.40
2022-11-05T05:18:46.678Z,80.44
2022-11-05T05:19:46.324Z,80.24
2022-11-05T05:20:46.331Z,80.48
2022-11-05T05:21:46.300Z,80.90
2022-11-05T05:22:46.349Z,80.57
2022-11-05T05:23:46.272Z,80.35
2022-11-05T05:24:51.483Z,80.39
2022-11-05T05:25:47.251Z,80.21
2022-11-05T05:26:46.280Z,80.40
2022-11-05T05:27:46.221Z,80.39
2022-11-05T05:28:46.302Z,80.43
2022-11-05T05:29:46.200Z,80.31
2022-11-05T05:30:46.261Z,80.43
2022-11-05T05:31:46.170Z,80.58
2022-11-05T05:32:46.220Z,80.31
2022-11-05T05:33:46.149Z,80.32
2022-11-05T05:34:46.232Z,80.53
2022-11-05T05:35:46.119Z,80.77
2022-11-05T05:36:46.201Z,80.57
2022-11-05T05:37:46.102Z,80.44
2022-11-05T05:38:46.160Z,80.08
2022-11-05T05:39:46.061Z,80.08
2022-11-05T05:40:46.081Z,80.53
2022-11-05T05:41:46.041Z,80.14
2022-11-05T05:42:46.142Z,80.36
2022-11-05T05:43:46.020Z,80.15
2022-11-05T05:44:46.100Z,79.88
2022-11-05T05:45:45.988Z,80.08
2022-11-05T05:46:46.010Z,80.03
2022-11-05T05:47:45.972Z,79.92
2022-11-05T05:48:46.081Z,79.87
2022-11-05T05:49:45.940Z,80.12
2022-11-05T05:50:47.178Z,79.78
2022-11-05T05:51:45.910Z,79.59
2022-11-05T05:52:45.953Z,79.45
2022-11-05T05:53:45.880Z,79.19
2022-11-05T05:54:46.034Z,79.54
2022-11-05T05:55:45.859Z,80.00
2022-11-05T05:56:46.941Z,79.45
2022-11-05T05:57:45.831Z,79.17
2022-11-05T05:58:45.898Z,79.00
2022-11-05T05:59:45.809Z,79.07
2022-11-05T06:00:46.890Z,78.98
2022-11-05T06:01:45.875Z,78.54
2022-11-05T06:02:45.888Z,78.46
2022-11-05T06:03:45.758Z,78.34
2022-11-05T06:04:45.839Z,78.51
2022-11-05T06:05:45.729Z,78.42
2022-11-05T06:06:45.804Z,78.14
2022-11-05T06:07:45.997Z,78.31
2022-11-05T06:08:45.769Z,78.11
2022-11-05T06:09:45.682Z,78.25
2022-11-05T06:10:45.841Z,78.35
2022-11-05T06:11:45.657Z,78.15
2022-11-05T06:12:45.740Z,78.13
2022-11-05T06:13:45.620Z,78.52
2022-11-05T06:14:45.701Z,78.29
2022-11-05T06:15:45.608Z,78.22
2022-11-05T06:16:45.633Z,78.74
2022-11-05T06:17:45.580Z,78.63
2022-11-05T06:18:45.690Z,78.62
2022-11-05T06:19:45.550Z,78.46
2022-11-05T06:20:45.750Z,78.38
2022-11-05T06:21:45.530Z,78.46
2022-11-05T06:22:46.637Z,78.67
2022-11-05T06:23:45.509Z,78.77
2022-11-05T06:24:45.613Z,78.58
2022-11-05T06:25:45.494Z,78.71
2022-11-05T06:26:45.819Z,78.53
2022-11-05T06:27:45.582Z,78.62
2022-11-05T06:28:47.610Z,78.31
2022-11-05T06:29:45.419Z,78.26
2022-11-05T06:30:45.528Z,78.42
2022-11-05T06:31:45.384Z,78.43
2022-11-05T06:32:45.493Z,78.67
2022-11-05T06:33:45.358Z,78.62
2022-11-05T06:34:45.519Z,78.69
2022-11-05T06:35:45.338Z,78.33
2022-11-05T06:36:45.523Z,78.73
2022-11-05T06:37:45.298Z,78.51
2022-11-05T06:38:45.397Z,78.28
2022-11-05T06:39:45.290Z,78.06
2022-11-05T06:40:45.466Z,78.30
2022-11-05T06:42:12.038Z,78.00
2022-11-05T06:42:46.287Z,78.16
2022-11-05T06:43:45.230Z,78.48
2022-11-05T06:44:45.397Z,78.32
2022-11-05T06:45:45.357Z,78.11
2022-11-05T06:46:48.581Z,78.04
2022-11-05T06:47:45.186Z,78.09
2022-11-05T06:48:45.317Z,78.14
2022-11-05T06:49:45.158Z,78.17
2022-11-05T06:50:45.305Z,77.86
2022-11-05T06:51:45.129Z,78.03
2022-11-05T06:52:45.239Z,78.35
2022-11-05T06:53:45.096Z,77.72
2022-11-05T06:54:45.347Z,77.83
2022-11-05T06:55:45.075Z,77.54
2022-11-05T06:56:45.209Z,77.53
2022-11-05T06:57:45.069Z,77.37
2022-11-05T06:58:47.554Z,77.67
2022-11-05T06:59:46.502Z,77.67
2022-11-05T07:00:48.913Z,77.60
2022-11-05T07:01:47.651Z,77.45
2022-11-05T07:02:45.450Z,77.44
2022-11-05T07:03:45.720Z,77.57
2022-11-05T07:04:46.043Z,77.57
2022-11-05T07:05:45.777Z,77.52
2022-11-05T07:06:46.914Z,77.90
2022-11-05T07:07:46.182Z,77.81
2022-11-05T07:08:46.698Z,77.41
2022-11-05T07:09:48.208Z,77.48
2022-11-05T07:10:46.910Z,77.42
2022-11-05T07:11:45.647Z,77.44
2022-11-05T07:12:47.404Z,77.10
2022-11-05T07:13:47.414Z,77.14
2022-11-05T07:14:45.946Z,77.27
2022-11-05T07:15:46.482Z,77.14
2022-11-05T07:16:49.587Z,77.42
2022-11-05T07:17:45.473Z,77.58
2022-11-05T07:18:45.280Z,77.51
2022-11-05T07:19:45.667Z,77.55
2022-11-05T07:20:49.881Z,77.22
2022-11-05T07:21:46.968Z,77.19
2022-11-05T07:22:46.195Z,77.35
2022-11-05T07:23:45.085Z,77.27
2022-11-05T07:24:46.353Z,77.50
2022-11-05T07:25:45.253Z,77.55
2022-11-05T07:26:46.228Z,77.09
2022-11-05T07:27:44.657Z,77.09
2022-11-05T07:28:44.737Z,76.86
2022-11-05T07:29:44.736Z,76.62
2022-11-05T07:30:44.728Z,76.69
2022-11-05T07:31:44.586Z,76.96
2022-11-05T07:32:46.806Z,77.00
2022-11-05T07:33:44.582Z,76.68
2022-11-05T07:34:44.767Z,76.72
2022-11-05T07:35:44.546Z,76.65
2022-11-05T07:36:44.783Z,76.38
2022-11-05T07:37:44.505Z,76.61
2022-11-05T07:38:46.623Z,76.74
2022-11-05T07:39:44.476Z,76.39
2022-11-05T07:40:45.579Z,76.12
2022-11-05T07:41:44.491Z,76.21
2022-11-05T07:42:44.641Z,76.55
2022-11-05T07:43:44.496Z,76.89
2022-11-05T07:45:53.920Z,76.33
2022-11-05T07:46:53.692Z,76.31
2022-11-05T07:47:53.885Z,76.55
2022-11-05T07:48:53.675Z,76.65
2022-11-05T07:49:53.880Z,76.85
2022-11-05T07:50:53.642Z,77.01
2022-11-05T07:51:53.707Z,76.83
2022-11-05T07:52:53.616Z,76.82
2022-11-05T07:53:53.800Z,77.67
2022-11-05T07:54:53.601Z,76.33
2022-11-05T07:55:53.820Z,76.51
2022-11-05T07:56:53.553Z,76.55
2022-11-05T07:57:55.051Z,76.14
2022-11-05T07:58:54.313Z,76.10
2022-11-05T07:59:55.957Z,76.23
2022-11-05T08:00:58.275Z,76.12
2022-11-05T08:01:55.103Z,76.41
2022-11-05T08:02:54.636Z,76.19
2022-11-05T08:03:54.079Z,76.39
2022-11-05T08:04:53.716Z,76.46
2022-11-05T08:05:54.359Z,76.24
2022-11-05T08:06:54.975Z,76.30
2022-11-05T08:07:54.296Z,76.50
2022-11-05T08:08:54.804Z,76.54
2022-11-05T08:09:54.756Z,76.29
2022-11-05T08:10:57.544Z,76.19
2022-11-05T08:11:57.355Z,76.24
2022-11-05T08:12:55.697Z,75.76
2022-11-05T08:13:54.389Z,75.78
2022-11-05T08:14:53.550Z,75.38
2022-11-05T08:15:54.273Z,75.56
2022-11-05T08:16:53.406Z,75.79
2022-11-05T08:17:53.304Z,76.22
2022-11-05T08:19:14.537Z,76.14
2022-11-05T08:19:53.268Z,75.75
2022-11-05T08:20:54.372Z,75.23
2022-11-05T08:21:53.229Z,75.43
2022-11-05T08:22:53.379Z,75.30
2022-11-05T08:23:53.243Z,75.56
2022-11-05T08:24:53.213Z,75.60
2022-11-05T08:25:53.178Z,75.72
2022-11-05T08:26:53.259Z,75.95
2022-11-05T08:27:53.155Z,75.02
2022-11-05T08:28:53.189Z,75.05
2022-11-05T08:29:53.150Z,75.23
2022-11-05T08:30:53.230Z,75.64
2022-11-05T08:31:53.098Z,75.55
2022-11-05T08:32:54.183Z,75.49
2022-11-05T08:33:54.409Z,75.27
2022-11-05T08:34:53.070Z,74.81
2022-11-05T08:35:53.215Z,75.52
2022-11-05T08:36:53.029Z,75.25
2022-11-05T08:37:53.197Z,74.82
2022-11-05T08:38:53.011Z,74.82
2022-11-05T08:39:53.029Z,75.42
2022-11-05T08:40:52.969Z,75.12
2022-11-05T08:41:54.142Z,75.66
2022-11-05T08:42:52.951Z,75.47
2022-11-05T08:43:53.100Z,74.19
2022-11-05T08:44:52.911Z,74.18
2022-11-05T08:45:53.031Z,73.94
2022-11-05T08:46:52.882Z,75.19
2022-11-05T08:47:56.293Z,74.78
2022-11-05T08:48:52.862Z,74.75
2022-11-05T08:49:52.907Z,74.24
2022-11-05T08:50:52.840Z,74.41
2022-11-05T08:51:52.939Z,74.53
2022-11-05T08:52:52.810Z,74.39
2022-11-05T08:53:52.940Z,74.02
2022-11-05T08:54:52.781Z,74.33
2022-11-05T08:55:52.913Z,74.29
2022-11-05T08:56:52.761Z,74.55
2022-11-05T08:57:52.851Z,74.25
2022-11-05T08:58:52.733Z,74.03
2022-11-05T08:59:53.863Z,73.35
2022-11-05T09:00:52.745Z,73.27
2022-11-05T09:01:53.950Z,73.60
2022-11-05T09:02:52.680Z,73.33
2022-11-05T09:03:52.853Z,73.96
2022-11-05T09:04:52.653Z,73.32
2022-11-05T09:05:52.739Z,73.49
2022-11-05T09:06:53.349Z,73.62
2022-11-05T09:07:59.423Z,73.29
2022-11-05T09:08:55.600Z,73.83
2022-11-05T09:09:56.539Z,74.26
2022-11-05T09:10:53.877Z,74.75
2022-11-05T09:12:11.647Z,74.97
2022-11-05T09:12:54.205Z,74.75
2022-11-05T09:13:56.283Z,74.47
2022-11-05T09:14:55.167Z,74.20
2022-11-05T09:15:55.046Z,73.94
2022-11-05T09:16:53.710Z,74.22
2022-11-05T09:17:52.718Z,74.53
2022-11-05T09:18:52.459Z,74.15
2022-11-05T09:19:52.569Z,74.06
2022-11-05T09:20:52.450Z,74.55
2022-11-05T09:21:52.503Z,74.57
2022-11-05T09:22:52.527Z,74.59
2022-11-05T09:23:55.861Z,74.56
2022-11-05T09:24:52.401Z,75.04
2022-11-05T09:25:52.479Z,74.71
2022-11-05T09:26:52.358Z,73.89
2022-11-05T09:27:53.528Z,73.16
2022-11-05T09:28:52.332Z,73.36
2022-11-05T09:29:52.507Z,74.10
2022-11-05T09:30:52.309Z,73.90
2022-11-05T09:31:52.383Z,73.96
2022-11-05T09:32:52.269Z,74.23
2022-11-05T09:33:54.411Z,74.65
2022-11-05T09:34:52.258Z,73.80
2022-11-05T09:35:52.403Z,74.02
2022-11-05T09:36:52.236Z,74.43
2022-11-05T09:37:55.600Z,72.96
2022-11-05T09:38:53.198Z,72.91
2022-11-05T09:39:52.319Z,72.69
2022-11-05T09:40:52.182Z,73.13
2022-11-05T09:41:53.239Z,72.73
2022-11-05T09:42:52.148Z,72.35
2022-11-05T09:43:52.289Z,73.28
2022-11-05T09:44:52.120Z,72.74
2022-11-05T09:45:53.248Z,72.44
2022-11-05T09:46:52.090Z,71.60
2022-11-05T09:47:52.319Z,72.67
2022-11-05T09:48:52.083Z,71.53
2022-11-05T09:49:52.102Z,70.92
2022-11-05T09:50:52.070Z,71.68
2022-11-05T09:51:53.558Z,70.95
2022-11-05T09:52:53.142Z,69.65
2022-11-05T09:53:54.046Z,70.38
2022-11-05T09:54:58.412Z,70.97
2022-11-05T09:55:53.213Z,70.92
2022-11-05T09:56:53.159Z,71.24
2022-11-05T09:57:53.044Z,70.82
2022-11-05T09:58:55.087Z,71.08
2022-11-05T09:59:52.097Z,70.36
2022-11-05T10:00:54.674Z,69.91
2022-11-05T10:01:54.275Z,70.36
2022-11-05T10:02:55.102Z,71.55
2022-11-05T10:03:52.776Z,70.89
2022-11-05T10:04:53.781Z,71.05
2022-11-05T10:05:55.370Z,70.81
2022-11-05T10:06:51.836Z,71.41
2022-11-05T10:07:51.938Z,72.21
2022-11-05T10:09:00.771Z,73.06
2022-11-05T10:09:51.819Z,73.06
2022-11-05T10:10:54.440Z,71.69
2022-11-05T10:11:54.351Z,71.66
2022-11-05T10:12:53.621Z,70.94
2022-11-05T10:13:51.959Z,71.02
2022-11-05T10:14:52.059Z,71.64
2022-11-05T10:15:52.720Z,71.50
2022-11-05T10:16:55.038Z,71.00
2022-11-05T10:17:51.901Z,71.34
2022-11-05T10:18:51.690Z,71.69
2022-11-05T10:19:52.129Z,71.69
2022-11-05T10:20:51.650Z,71.92
2022-11-05T10:22:06.554Z,71.88
2022-11-05T10:22:53.229Z,71.46
2022-11-05T10:23:51.819Z,71.77
2022-11-05T10:24:51.591Z,71.86
2022-11-05T10:26:12.719Z,72.21
2022-11-05T10:26:51.561Z,71.62
2022-11-05T10:27:53.684Z,71.93
2022-11-05T10:28:51.552Z,71.84
2022-11-05T10:29:51.620Z,71.90
2022-11-05T10:30:51.509Z,71.21
2022-11-05T10:31:51.582Z,71.35
2022-11-05T10:32:51.480Z,70.65
2022-11-05T10:34:12.631Z,71.14
2022-11-05T10:34:51.462Z,71.38
2022-11-05T10:35:51.520Z,71.48
2022-11-05T10:36:51.439Z,71.41
2022-11-05T10:37:51.597Z,71.96
2022-11-05T10:38:51.401Z,71.64
2022-11-05T10:39:51.552Z,71.49
2022-11-05T10:40:51.379Z,71.71
2022-11-05T10:41:51.535Z,72.14
2022-11-05T10:42:51.351Z,71.42
2022-11-05T10:44:18.553Z,72.00
2022-11-05T10:44:52.360Z,72.16
2022-11-05T10:45:51.414Z,71.80
2022-11-05T10:46:51.305Z,72.19
2022-11-05T10:47:51.440Z,72.21
2022-11-05T10:48:51.278Z,71.68
2022-11-05T10:50:15.574Z,71.28
2022-11-05T10:50:51.250Z,70.92
2022-11-05T10:51:51.408Z,70.66
2022-11-05T10:52:51.220Z,70.70
2022-11-05T10:53:51.340Z,71.30
2022-11-05T10:54:51.193Z,71.04
2022-11-05T10:55:51.332Z,71.00
2022-11-05T10:56:51.167Z,71.04
2022-11-05T10:57:51.317Z,71.70
2022-11-05T10:58:51.142Z,71.89
2022-11-05T10:59:51.250Z,71.87
2022-11-05T11:00:51.179Z,70.74
2022-11-05T11:01:51.327Z,70.66
2022-11-05T11:02:51.089Z,72.82
2022-11-05T11:03:51.136Z,70.22
2022-11-05T11:04:51.060Z,70.12
2022-11-05T11:05:51.151Z,71.00
2022-11-05T11:06:51.031Z,70.71
2022-11-05T11:07:51.140Z,70.43
2022-11-05T11:08:51.021Z,69.13
2022-11-05T11:09:51.160Z,69.56
2022-11-05T11:10:50.988Z,70.08
2022-11-05T11:11:52.083Z,71.14
2022-11-05T11:12:51.001Z,70.17
2022-11-05T11:13:51.160Z,70.26
2022-11-05T11:14:50.934Z,69.73
2022-11-05T11:15:51.034Z,69.91
2022-11-05T11:16:50.901Z,69.75
2022-11-05T11:17:50.992Z,69.68
2022-11-05T11:18:50.879Z,70.18
2022-11-05T11:19:51.061Z,70.35
2022-11-05T11:20:50.841Z,70.85
2022-11-05T11:21:50.932Z,69.95
2022-11-05T11:22:50.823Z,70.38
2022-11-05T11:23:50.872Z,70.78
2022-11-05T11:24:50.935Z,70.34
2022-11-05T11:25:50.959Z,70.68
2022-11-05T11:26:50.772Z,71.13
2022-11-05T11:27:50.943Z,70.75
2022-11-05T11:28:50.739Z,70.99
2022-11-05T11:29:50.780Z,70.96
2022-11-05T11:30:50.712Z,70.98
2022-11-05T11:31:50.853Z,70.99
2022-11-05T11:32:50.691Z,70.84
2022-11-05T11:33:50.756Z,71.23
2022-11-05T11:34:50.662Z,71.53
2022-11-05T11:35:51.820Z,71.20
2022-11-05T11:36:50.631Z,70.83
2022-11-05T11:37:50.792Z,70.59
2022-11-05T11:38:50.626Z,70.67
2022-11-05T11:39:51.679Z,71.02
2022-11-05T11:40:50.581Z,71.24
2022-11-05T11:41:50.692Z,71.22
2022-11-05T11:42:50.562Z,70.47
2022-11-05T11:43:50.674Z,70.46
2022-11-05T11:44:50.529Z,69.88
2022-11-05T11:45:50.652Z,70.27
2022-11-05T11:46:50.531Z,70.50
2022-11-05T11:47:50.694Z,70.62
2022-11-05T11:48:50.473Z,70.71
2022-11-05T11:49:50.579Z,71.23
2022-11-05T11:50:50.453Z,71.37
2022-11-05T11:51:50.562Z,71.70
2022-11-05T11:52:50.429Z,71.55
2022-11-05T11:53:50.497Z,71.52
2022-11-05T11:54:50.400Z,71.63
2022-11-05T11:55:50.582Z,70.69
2022-11-05T11:56:50.375Z,70.43
2022-11-05T11:57:50.475Z,70.38
2022-11-05T11:58:50.338Z,70.43
2022-11-05T12:00:51.619Z,69.70
2022-11-05T12:01:50.562Z,69.89
2022-11-05T12:02:50.481Z,69.92
2022-11-05T12:03:50.312Z,69.55
2022-11-05T12:04:51.330Z,69.46
2022-11-05T12:05:51.128Z,69.08
2022-11-05T12:06:52.258Z,69.00
2022-11-05T12:07:51.038Z,69.29
2022-11-05T12:09:13.450Z,69.34
2022-11-05T12:09:50.986Z,69.31
2022-11-05T12:10:51.138Z,69.44
2022-11-05T12:11:50.954Z,70.11
2022-11-05T12:12:51.158Z,69.92
2022-11-05T12:13:50.142Z,71.02
2022-11-05T12:14:50.185Z,70.57
2022-11-05T12:15:50.112Z,70.56
2022-11-05T12:16:50.187Z,70.66
2022-11-05T12:17:50.094Z,71.08
2022-11-05T12:18:50.158Z,70.46
2022-11-05T12:19:50.065Z,70.13
2022-11-05T12:20:55.340Z,69.35
2022-11-05T12:21:53.460Z,69.42
2022-11-05T12:22:52.289Z,69.56
2022-11-05T12:23:50.067Z,69.95
2022-11-05T12:24:55.988Z,69.75
2022-11-05T12:25:53.606Z,70.07
2022-11-05T12:26:53.412Z,70.56
2022-11-05T12:27:50.229Z,70.26
2022-11-05T12:29:16.503Z,70.36
2022-11-05T12:29:51.634Z,70.68
2022-11-05T12:30:49.986Z,70.67
2022-11-05T12:31:49.891Z,70.49
2022-11-05T12:32:50.210Z,70.66
2022-11-05T12:33:49.875Z,70.75
2022-11-05T12:34:49.936Z,70.94
2022-11-05T12:35:54.792Z,71.15
2022-11-05T12:36:50.850Z,71.16
2022-11-05T12:37:49.926Z,71.24
2022-11-05T12:38:49.819Z,71.30
2022-11-05T12:39:49.845Z,71.54
2022-11-05T12:40:49.787Z,71.81
2022-11-05T12:41:49.913Z,71.99
2022-11-05T12:42:49.788Z,71.71
2022-11-05T12:43:49.804Z,71.29
2022-11-05T12:44:49.731Z,71.35
2022-11-05T12:45:50.805Z,71.59
2022-11-05T12:46:49.707Z,71.66
2022-11-05T12:47:49.749Z,71.58
2022-11-05T12:48:49.673Z,71.88
2022-11-05T12:49:49.745Z,71.91
2022-11-05T12:50:49.653Z,72.05
2022-11-05T12:51:49.762Z,71.61
2022-11-05T12:52:49.634Z,71.36
2022-11-05T12:53:49.735Z,71.75
2022-11-05T12:54:49.603Z,71.02